sensor_id;sensor_type;location;lat;lon;timestamp;pressure;altitude;pressure_sealevel;temperature;humidity
19789;BME280;10054;59.332;18.244;2023-08-30T00:02:03;100249.20;;;15.55;100.00
19789;BME280;10054;59.332;18.244;2023-08-30T00:04:32;100241.84;;;15.53;100.00
19789;BME280;10054;59.332;18.244;2023-08-30T00:07:01;100237.72;;;15.55;100.00
19789;BME280;10054;59.332;18.244;2023-08-30T00:09:29;100238.70;;;15.54;100.00
19789;BME280;10054;59.332;18.244;2023-08-30T00:11:58;100230.86;;;15.52;100.00
19789;BME280;10054;59.332;18.244;2023-08-30T00:14:29;100235.47;;;15.50;100.00
19789;BME280;10054;59.332;18.244;2023-08-30T00:16:57;100237.92;;;15.48;100.00
19789;BME280;10054;59.332;18.244;2023-08-30T00:19:26;100240.49;;;15.43;100.00
19789;BME280;10054;59.332;18.244;2023-08-30T00:21:54;100241.83;;;15.43;100.00
19789;BME280;10054;59.332;18.244;2023-08-30T00:24:24;100236.16;;;15.42;100.00
19789;BME280;10054;59.332;18.244;2023-08-30T00:26:53;100231.19;;;15.43;100.00
19789;BME280;10054;59.332;18.244;2023-08-30T00:29:21;100228.39;;;15.45;100.00
19789;BME280;10054;59.332;18.244;2023-08-30T00:31:54;100228.13;;;15.48;100.00
19789;BME280;10054;59.332;18.244;2023-08-30T00:34:23;100225.47;;;15.48;100.00
19789;BME280;10054;59.332;18.244;2023-08-30T00:36:51;100222.81;;;15.48;100.00
19789;BME280;10054;59.332;18.244;2023-08-30T00:39:20;100219.17;;;15.49;100.00
19789;BME280;10054;59.332;18.244;2023-08-30T00:41:49;100209.87;;;15.49;100.00
19789;BME280;10054;59.332;18.244;2023-08-30T00:44:19;100212.17;;;15.48;100.00
19789;BME280;10054;59.332;18.244;2023-08-30T00:46:49;100218.47;;;15.47;100.00
19789;BME280;10054;59.332;18.244;2023-08-30T00:49:18;100224.05;;;15.44;100.00
19789;BME280;10054;59.332;18.244;2023-08-30T00:51:46;100220.20;;;15.42;100.00
19789;BME280;10054;59.332;18.244;2023-08-30T00:54:15;100228.18;;;15.42;100.00
19789;BME280;10054;59.332;18.244;2023-08-30T00:56:44;100214.53;;;15.41;100.00
19789;BME280;10054;59.332;18.244;2023-08-30T00:59:15;100219.02;;;15.41;100.00
19789;BME280;10054;59.332;18.244;2023-08-30T01:01:44;100210.20;;;15.40;100.00
19789;BME280;10054;59.332;18.244;2023-08-30T01:04:13;100215.03;;;15.41;100.00
19789;BME280;10054;59.332;18.244;2023-08-30T01:06:42;100223.48;;;15.40;100.00
19789;BME280;10054;59.332;18.244;2023-08-30T01:09:11;100224.47;;;15.39;100.00
19789;BME280;10054;59.332;18.244;2023-08-30T01:14:38;100200.41;;;15.41;100.00
19789;BME280;10054;59.332;18.244;2023-08-30T01:17:04;100200.41;;;15.41;100.00
19789;BME280;10054;59.332;18.244;2023-08-30T01:19:41;100212.36;;;15.41;100.00
19789;BME280;10054;59.332;18.244;2023-08-30T01:25:12;100233.63;;;15.41;100.00
19789;BME280;10054;59.332;18.244;2023-08-30T01:27:39;100243.07;;;15.39;100.00
19789;BME280;10054;59.332;18.244;2023-08-30T01:30:09;100234.26;;;15.39;100.00
19789;BME280;10054;59.332;18.244;2023-08-30T01:32:39;100222.16;;;15.40;100.00
19789;BME280;10054;59.332;18.244;2023-08-30T01:35:09;100215.52;;;15.40;100.00
19789;BME280;10054;59.332;18.244;2023-08-30T01:37:40;100217.55;;;15.42;100.00
19789;BME280;10054;59.332;18.244;2023-08-30T01:40:10;100228.67;;;15.42;100.00
19789;BME280;10054;59.332;18.244;2023-08-30T01:42:41;100215.38;;;15.42;100.00
19789;BME280;10054;59.332;18.244;2023-08-30T01:45:13;100212.86;;;15.40;100.00
19789;BME280;10054;59.332;18.244;2023-08-30T01:47:44;100217.69;;;15.41;100.00
19789;BME280;10054;59.332;18.244;2023-08-30T01:50:13;100210.69;;;15.40;100.00
19789;BME280;10054;59.332;18.244;2023-08-30T01:52:43;100219.02;;;15.41;100.00
19789;BME280;10054;59.332;18.244;2023-08-30T01:55:14;100219.02;;;15.41;100.00
19789;BME280;10054;59.332;18.244;2023-08-30T01:57:42;100218.31;;;15.39;100.00
19789;BME280;10054;59.332;18.244;2023-08-30T02:00:12;100222.43;;;15.37;100.00
19789;BME280;10054;59.332;18.244;2023-08-30T02:02:43;100221.94;;;15.38;100.00
19789;BME280;10054;59.332;18.244;2023-08-30T02:05:11;100211.94;;;15.36;100.00
19789;BME280;10054;59.332;18.244;2023-08-30T02:10:23;100209.63;;;15.37;100.00
19789;BME280;10054;59.332;18.244;2023-08-30T02:12:54;100204.31;;;15.37;100.00
19789;BME280;10054;59.332;18.244;2023-08-30T02:15:24;100202.01;;;15.38;100.00
19789;BME280;10054;59.332;18.244;2023-08-30T02:17:54;100203.83;;;15.37;100.00
19789;BME280;10054;59.332;18.244;2023-08-30T02:20:23;100197.31;;;15.36;100.00
19789;BME280;10054;59.332;18.244;2023-08-30T02:22:52;100200.11;;;15.34;100.00
19789;BME280;10054;59.332;18.244;2023-08-30T02:25:20;100190.95;;;15.33;100.00
19789;BME280;10054;59.332;18.244;2023-08-30T02:27:51;100193.25;;;15.32;100.00
19789;BME280;10054;59.332;18.244;2023-08-30T02:30:19;100188.78;;;15.32;100.00
19789;BME280;10054;59.332;18.244;2023-08-30T02:32:48;100187.09;;;15.31;100.00
19789;BME280;10054;59.332;18.244;2023-08-30T02:35:17;100192.06;;;15.30;100.00
19789;BME280;10054;59.332;18.244;2023-08-30T02:37:45;100190.86;;;15.29;100.00
19789;BME280;10054;59.332;18.244;2023-08-30T02:40:15;100191.14;;;15.26;100.00
19789;BME280;10054;59.332;18.244;2023-08-30T02:42:44;100196.80;;;15.27;100.00
19789;BME280;10054;59.332;18.244;2023-08-30T02:45:13;100193.80;;;15.26;100.00
19789;BME280;10054;59.332;18.244;2023-08-30T02:47:42;100200.58;;;15.24;100.00
19789;BME280;10054;59.332;18.244;2023-08-30T02:50:10;100198.54;;;15.22;100.00
19789;BME280;10054;59.332;18.244;2023-08-30T02:52:39;100205.31;;;15.21;100.00
19789;BME280;10054;59.332;18.244;2023-08-30T02:55:09;100193.01;;;15.20;100.00
19789;BME280;10054;59.332;18.244;2023-08-30T02:57:37;100190.14;;;15.17;100.00
19789;BME280;10054;59.332;18.244;2023-08-30T03:00:09;100185.31;;;15.17;100.00
19789;BME280;10054;59.332;18.244;2023-08-30T03:02:37;100183.49;;;15.17;100.00
19789;BME280;10054;59.332;18.244;2023-08-30T03:05:06;100174.68;;;15.17;100.00
19789;BME280;10054;59.332;18.244;2023-08-30T03:07:35;100176.36;;;15.18;100.00
19789;BME280;10054;59.332;18.244;2023-08-30T03:10:04;100173.22;;;15.18;100.00
19789;BME280;10054;59.332;18.244;2023-08-30T03:12:33;100177.20;;;15.18;100.00
19789;BME280;10054;59.332;18.244;2023-08-30T03:15:02;100169.36;;;15.17;100.00
19789;BME280;10054;59.332;18.244;2023-08-30T03:17:31;100172.51;;;15.16;100.00
19789;BME280;10054;59.332;18.244;2023-08-30T03:20:00;100176.14;;;15.15;100.00
19789;BME280;10054;59.332;18.244;2023-08-30T03:22:31;100165.16;;;15.14;100.00
19789;BME280;10054;59.332;18.244;2023-08-30T03:25:00;100158.17;;;15.13;100.00
19789;BME280;10054;59.332;18.244;2023-08-30T03:27:32;100153.34;;;15.12;100.00
19789;BME280;10054;59.332;18.244;2023-08-30T03:30:05;100149.71;;;15.13;100.00
19789;BME280;10054;59.332;18.244;2023-08-30T03:32:34;100147.19;;;15.12;100.00
19789;BME280;10054;59.332;18.244;2023-08-30T03:35:05;100149.36;;;15.12;100.00
19789;BME280;10054;59.332;18.244;2023-08-30T03:37:35;100139.00;;;15.09;100.00
19789;BME280;10054;59.332;18.244;2023-08-30T03:40:04;100142.77;;;15.07;100.00
19789;BME280;10054;59.332;18.244;2023-08-30T03:42:33;100143.27;;;15.06;100.00
19789;BME280;10054;59.332;18.244;2023-08-30T03:45:03;100145.08;;;15.06;100.00
19789;BME280;10054;59.332;18.244;2023-08-30T03:47:33;100151.23;;;15.06;100.00
19789;BME280;10054;59.332;18.244;2023-08-30T03:50:01;100147.87;;;15.04;100.00
19789;BME280;10054;59.332;18.244;2023-08-30T03:52:30;100146.81;;;15.01;100.00
19789;BME280;10054;59.332;18.244;2023-08-30T03:54:59;100152.13;;;15.01;100.00
19789;BME280;10054;59.332;18.244;2023-08-30T03:57:29;100149.60;;;15.00;100.00
19789;BME280;10054;59.332;18.244;2023-08-30T03:59:58;100140.80;;;14.99;100.00
19789;BME280;10054;59.332;18.244;2023-08-30T04:02:26;100144.78;;;14.99;100.00
19789;BME280;10054;59.332;18.244;2023-08-30T04:04:55;100141.28;;;14.99;100.00
19789;BME280;10054;59.332;18.244;2023-08-30T04:07:24;100146.81;;;15.01;100.00
19789;BME280;10054;59.332;18.244;2023-08-30T04:09:52;100138.36;;;15.02;100.00
19789;BME280;10054;59.332;18.244;2023-08-30T04:12:21;100130.25;;;15.03;100.00
19789;BME280;10054;59.332;18.244;2023-08-30T04:14:50;100133.39;;;15.03;100.00
19789;BME280;10054;59.332;18.244;2023-08-30T04:17:18;100137.38;;;15.03;100.00
19789;BME280;10054;59.332;18.244;2023-08-30T04:19:47;100130.52;;;15.00;100.00
19789;BME280;10054;59.332;18.244;2023-08-30T04:22:15;100130.03;;;15.01;100.00
19789;BME280;10054;59.332;18.244;2023-08-30T04:24:49;100127.86;;;15.00;100.00
19789;BME280;10054;59.332;18.244;2023-08-30T04:27:18;100125.56;;;15.01;100.00
19789;BME280;10054;59.332;18.244;2023-08-30T04:29:46;100128.08;;;15.03;100.00
19789;BME280;10054;59.332;18.244;2023-08-30T04:32:15;100128.92;;;15.03;100.00
19789;BME280;10054;59.332;18.244;2023-08-30T04:34:43;100132.91;;;15.03;100.00
19789;BME280;10054;59.332;18.244;2023-08-30T04:37:12;100124.94;;;15.03;100.00
19789;BME280;10054;59.332;18.244;2023-08-30T04:39:42;100123.96;;;15.04;100.00
19789;BME280;10054;59.332;18.244;2023-08-30T04:42:11;100118.30;;;15.03;100.00
19789;BME280;10054;59.332;18.244;2023-08-30T04:44:39;100120.95;;;15.03;100.00
19789;BME280;10054;59.332;18.244;2023-08-30T04:47:08;100119.41;;;15.01;100.00
19789;BME280;10054;59.332;18.244;2023-08-30T04:49:37;100111.22;;;14.98;100.00
19789;BME280;10054;59.332;18.244;2023-08-30T04:52:06;100105.70;;;14.96;100.00
19789;BME280;10054;59.332;18.244;2023-08-30T04:54:37;100113.31;;;14.95;100.00
19789;BME280;10054;59.332;18.244;2023-08-30T04:57:05;100104.50;;;14.94;100.00
19789;BME280;10054;59.332;18.244;2023-08-30T04:59:34;100104.29;;;14.92;100.00
19789;BME280;10054;59.332;18.244;2023-08-30T05:02:03;100105.13;;;14.92;100.00
19789;BME280;10054;59.332;18.244;2023-08-30T05:04:33;100102.12;;;14.91;100.00
19789;BME280;10054;59.332;18.244;2023-08-30T05:07:02;100103.31;;;14.93;100.00
19789;BME280;10054;59.332;18.244;2023-08-30T05:09:31;100102.69;;;14.95;100.00
19789;BME280;10054;59.332;18.244;2023-08-30T05:12:02;100105.20;;;14.96;100.00
19789;BME280;10054;59.332;18.244;2023-08-30T05:14:32;100104.58;;;14.98;100.00
19789;BME280;10054;59.332;18.244;2023-08-30T05:17:01;100100.95;;;14.99;100.00
19789;BME280;10054;59.332;18.244;2023-08-30T05:19:32;100091.37;;;15.02;100.00
19789;BME280;10054;59.332;18.244;2023-08-30T05:22:00;100092.44;;;15.05;100.00
19789;BME280;10054;59.332;18.244;2023-08-30T05:24:29;100085.52;;;15.08;100.00
19789;BME280;10054;59.332;18.244;2023-08-30T05:26:58;100085.73;;;15.11;100.00
19789;BME280;10054;59.332;18.244;2023-08-30T05:29:27;100081.82;;;15.15;100.00
19789;BME280;10054;59.332;18.244;2023-08-30T05:31:56;100086.38;;;15.19;100.00
19789;BME280;10054;59.332;18.244;2023-08-30T05:34:28;100088.27;;;15.22;100.00
19789;BME280;10054;59.332;18.244;2023-08-30T05:37:07;100080.36;;;15.26;100.00
19789;BME280;10054;59.332;18.244;2023-08-30T05:39:37;100071.41;;;15.27;100.00
19789;BME280;10054;59.332;18.244;2023-08-30T05:42:06;100079.11;;;15.30;100.00
19789;BME280;10054;59.332;18.244;2023-08-30T05:44:35;100071.00;;;15.32;100.00
19789;BME280;10054;59.332;18.244;2023-08-30T05:47:04;100066.31;;;15.30;100.00
19789;BME280;10054;59.332;18.244;2023-08-30T05:49:33;100074.28;;;15.30;100.00
19789;BME280;10054;59.332;18.244;2023-08-30T05:52:02;100077.30;;;15.31;100.00
19789;BME280;10054;59.332;18.244;2023-08-30T05:54:31;100079.59;;;15.30;100.00
19789;BME280;10054;59.332;18.244;2023-08-30T05:57:02;100084.91;;;15.30;100.00
19789;BME280;10054;59.332;18.244;2023-08-30T05:59:33;100091.20;;;15.29;100.00
19789;BME280;10054;59.332;18.244;2023-08-30T06:02:02;100085.05;;;15.28;100.00
19789;BME280;10054;59.332;18.244;2023-08-30T06:04:31;100083.23;;;15.29;100.00
19789;BME280;10054;59.332;18.244;2023-08-30T06:07:00;100078.27;;;15.30;100.00
19789;BME280;10054;59.332;18.244;2023-08-30T06:09:29;100080.44;;;15.30;100.00
19789;BME280;10054;59.332;18.244;2023-08-30T06:11:57;100077.16;;;15.32;100.00
19789;BME280;10054;59.332;18.244;2023-08-30T06:14:26;100079.53;;;15.35;100.00
19789;BME280;10054;59.332;18.244;2023-08-30T06:16:54;100078.83;;;15.33;100.00
19789;BME280;10054;59.332;18.244;2023-08-30T06:19:23;100079.81;;;15.32;100.00
19789;BME280;10054;59.332;18.244;2023-08-30T06:21:51;100080.30;;;15.32;100.00
19789;BME280;10054;59.332;18.244;2023-08-30T06:24:21;100079.59;;;15.30;100.00
19789;BME280;10054;59.332;18.244;2023-08-30T06:26:50;100080.58;;;15.29;100.00
19789;BME280;10054;59.332;18.244;2023-08-30T06:29:18;100083.23;;;15.29;100.00
19789;BME280;10054;59.332;18.244;2023-08-30T06:31:47;100082.25;;;15.30;100.00
19789;BME280;10054;59.332;18.244;2023-08-30T06:34:15;100078.62;;;15.31;100.00
19789;BME280;10054;59.332;18.244;2023-08-30T06:36:44;100075.69;;;15.34;100.00
19789;BME280;10054;59.332;18.244;2023-08-30T06:39:14;100071.42;;;15.37;100.00
19789;BME280;10054;59.332;18.244;2023-08-30T06:41:43;100069.11;;;15.38;100.00
19789;BME280;10054;59.332;18.244;2023-08-30T06:44:13;100071.28;;;15.38;100.00
19789;BME280;10054;59.332;18.244;2023-08-30T06:46:43;100063.59;;;15.35;100.00
19789;BME280;10054;59.332;18.244;2023-08-30T06:49:11;100061.34;;;15.31;100.00
19789;BME280;10054;59.332;18.244;2023-08-30T06:51:41;100066.31;;;15.30;100.00
19789;BME280;10054;59.332;18.244;2023-08-30T06:54:12;100053.16;;;15.28;100.00
19789;BME280;10054;59.332;18.244;2023-08-30T06:56:40;100043.38;;;15.29;100.00
19789;BME280;10054;59.332;18.244;2023-08-30T06:59:09;100044.14;;;15.25;100.00
19789;BME280;10054;59.332;18.244;2023-08-30T07:01:39;100037.00;;;15.26;100.00
19789;BME280;10054;59.332;18.244;2023-08-30T07:04:09;100032.88;;;15.27;100.00
19789;BME280;10054;59.332;18.244;2023-08-30T07:06:37;100032.88;;;15.27;100.00
19789;BME280;10054;59.332;18.244;2023-08-30T07:09:06;100037.50;;;15.25;100.00
19789;BME280;10054;59.332;18.244;2023-08-30T07:11:35;100041.97;;;15.25;100.00
19789;BME280;10054;59.332;18.244;2023-08-30T07:14:03;100035.12;;;15.22;100.00
19789;BME280;10054;59.332;18.244;2023-08-30T07:16:32;100035.47;;;15.23;100.00
19789;BME280;10054;59.332;18.244;2023-08-30T07:19:01;100033.30;;;15.23;100.00
19789;BME280;10054;59.332;18.244;2023-08-30T07:21:29;100028.97;;;15.22;100.00
19789;BME280;10054;59.332;18.244;2023-08-30T07:23:58;100028.97;;;15.22;100.00
19789;BME280;10054;59.332;18.244;2023-08-30T07:26:28;100031.06;;;15.18;100.00
19789;BME280;10054;59.332;18.244;2023-08-30T07:28:56;100039.73;;;15.20;100.00
19789;BME280;10054;59.332;18.244;2023-08-30T07:31:25;100031.06;;;15.18;100.00
19789;BME280;10054;59.332;18.244;2023-08-30T07:33:53;100030.92;;;15.20;100.00
19789;BME280;10054;59.332;18.244;2023-08-30T07:36:23;100029.73;;;15.18;100.00
19789;BME280;10054;59.332;18.244;2023-08-30T07:38:52;100027.70;;;15.16;100.00
19789;BME280;10054;59.332;18.244;2023-08-30T07:41:20;100021.91;;;15.17;100.00
19789;BME280;10054;59.332;18.244;2023-08-30T07:43:49;100021.41;;;15.17;100.00
19789;BME280;10054;59.332;18.244;2023-08-30T07:46:17;100011.62;;;15.18;100.00
19789;BME280;10054;59.332;18.244;2023-08-30T07:48:46;100018.27;;;15.18;100.00
19789;BME280;10054;59.332;18.244;2023-08-30T07:51:14;100011.48;;;15.19;100.00
19789;BME280;10054;59.332;18.244;2023-08-30T07:53:43;100016.87;;;15.23;100.00
19789;BME280;10054;59.332;18.244;2023-08-30T07:56:11;100009.31;;;15.19;100.00
19789;BME280;10054;59.332;18.244;2023-08-30T07:58:41;100011.83;;;15.20;100.00
19789;BME280;10054;59.332;18.244;2023-08-30T08:01:12;100005.61;;;15.25;100.00
19789;BME280;10054;59.332;18.244;2023-08-30T08:03:40;100014.98;;;15.29;100.00
19789;BME280;10054;59.332;18.244;2023-08-30T08:06:10;100011.69;;;15.31;100.00
19789;BME280;10054;59.332;18.244;2023-08-30T08:08:39;100016.16;;;15.40;100.00
19789;BME280;10054;59.332;18.244;2023-08-30T08:11:09;100008.52;;;15.51;100.00
19789;BME280;10054;59.332;18.244;2023-08-30T08:13:39;100012.67;;;15.59;100.00
19789;BME280;10054;59.332;18.244;2023-08-30T08:16:07;100015.22;;;15.65;100.00
19789;BME280;10054;59.332;18.244;2023-08-30T08:18:36;100010.66;;;15.71;100.00
19789;BME280;10054;59.332;18.244;2023-08-30T08:21:04;100012.25;;;15.77;100.00
19789;BME280;10054;59.332;18.244;2023-08-30T08:23:34;100016.30;;;15.82;100.00
19789;BME280;10054;59.332;18.244;2023-08-30T08:26:02;100021.53;;;15.87;100.00
19789;BME280;10054;59.332;18.244;2023-08-30T08:28:31;100021.53;;;15.87;100.00
19789;BME280;10054;59.332;18.244;2023-08-30T08:31:00;100019.28;;;15.92;100.00
19789;BME280;10054;59.332;18.244;2023-08-30T08:33:28;100019.20;;;15.98;100.00
19789;BME280;10054;59.332;18.244;2023-08-30T08:35:57;100023.97;;;15.94;100.00
19789;BME280;10054;59.332;18.244;2023-08-30T08:38:25;100020.27;;;15.91;100.00
19789;BME280;10054;59.332;18.244;2023-08-30T08:41:00;100012.00;;;15.94;100.00
19789;BME280;10054;59.332;18.244;2023-08-30T08:43:25;100016.73;;;16.00;100.00
19789;BME280;10054;59.332;18.244;2023-08-30T08:45:57;100012.95;;;16.03;100.00
19789;BME280;10054;59.332;18.244;2023-08-30T08:48:27;100014.63;;;16.04;100.00
19789;BME280;10054;59.332;18.244;2023-08-30T08:50:57;100005.86;;;16.07;100.00
19789;BME280;10054;59.332;18.244;2023-08-30T08:53:28;100004.09;;;16.12;100.00
19789;BME280;10054;59.332;18.244;2023-08-30T08:55:58;100003.31;;;16.16;100.00
19789;BME280;10054;59.332;18.244;2023-08-30T08:58:29;100000.36;;;16.19;100.00
19789;BME280;10054;59.332;18.244;2023-08-30T09:00:58;100006.46;;;16.15;100.00
19789;BME280;10054;59.332;18.244;2023-08-30T09:03:27;100004.30;;;16.15;100.00
19789;BME280;10054;59.332;18.244;2023-08-30T09:05:56;100006.31;;;16.17;100.00
19789;BME280;10054;59.332;18.244;2023-08-30T09:08:25;100014.55;;;16.23;100.00
19789;BME280;10054;59.332;18.244;2023-08-30T09:10:54;100012.14;;;16.30;100.00
19789;BME280;10054;59.332;18.244;2023-08-30T09:13:23;100003.69;;;16.34;100.00
19789;BME280;10054;59.332;18.244;2023-08-30T09:15:51;99996.78;;;16.41;100.00
19789;BME280;10054;59.332;18.244;2023-08-30T09:18:20;100000.23;;;16.52;100.00
19789;BME280;10054;59.332;18.244;2023-08-30T09:20:48;100000.81;;;16.59;100.00
19789;BME280;10054;59.332;18.244;2023-08-30T09:23:18;100000.00;;;16.72;100.00
19789;BME280;10054;59.332;18.244;2023-08-30T09:25:53;100002.94;;;16.83;100.00
19789;BME280;10054;59.332;18.244;2023-08-30T09:28:18;100000.08;;;16.81;100.00
19789;BME280;10054;59.332;18.244;2023-08-30T09:30:50;100001.34;;;16.90;100.00
19789;BME280;10054;59.332;18.244;2023-08-30T09:33:33;99991.38;;;16.92;100.00
19789;BME280;10054;59.332;18.244;2023-08-30T09:36:02;99998.50;;;17.05;100.00
19789;BME280;10054;59.332;18.244;2023-08-30T09:38:30;99998.08;;;17.18;100.00
19789;BME280;10054;59.332;18.244;2023-08-30T09:41:05;100005.77;;;17.21;100.00
19789;BME280;10054;59.332;18.244;2023-08-30T09:43:41;100010.95;;;17.23;100.00
19789;BME280;10054;59.332;18.244;2023-08-30T09:46:06;100013.04;;;17.33;100.00
19789;BME280;10054;59.332;18.244;2023-08-30T09:48:35;100008.70;;;17.32;100.00
19789;BME280;10054;59.332;18.244;2023-08-30T09:51:06;100010.22;;;17.34;100.00
19789;BME280;10054;59.332;18.244;2023-08-30T09:53:42;100018.13;;;17.44;100.00
19789;BME280;10054;59.332;18.244;2023-08-30T09:56:11;100012.70;;;17.54;100.00
19789;BME280;10054;59.332;18.244;2023-08-30T09:58:42;100012.09;;;17.60;100.00
19789;BME280;10054;59.332;18.244;2023-08-30T10:01:12;100011.62;;;17.64;100.00
19789;BME280;10054;59.332;18.244;2023-08-30T10:03:41;100010.10;;;17.62;100.00
19789;BME280;10054;59.332;18.244;2023-08-30T10:06:12;100009.20;;;17.71;100.00
19789;BME280;10054;59.332;18.244;2023-08-30T10:08:43;100014.09;;;17.80;100.00
19789;BME280;10054;59.332;18.244;2023-08-30T10:11:14;100013.59;;;17.80;100.00
19789;BME280;10054;59.332;18.244;2023-08-30T10:13:45;100008.75;;;17.84;100.00
19789;BME280;10054;59.332;18.244;2023-08-30T10:16:16;100005.27;;;17.87;100.00
19789;BME280;10054;59.332;18.244;2023-08-30T10:18:49;100008.78;;;17.88;100.00
19789;BME280;10054;59.332;18.244;2023-08-30T10:21:19;100005.77;;;17.87;100.00
19789;BME280;10054;59.332;18.244;2023-08-30T10:23:50;100010.09;;;17.80;100.00
19789;BME280;10054;59.332;18.244;2023-08-30T10:26:23;100009.56;;;17.76;100.00
19789;BME280;10054;59.332;18.244;2023-08-30T10:28:55;100005.59;;;17.84;100.00
19789;BME280;10054;59.332;18.244;2023-08-30T10:31:24;100002.42;;;17.85;100.00
19789;BME280;10054;59.332;18.244;2023-08-30T10:33:55;100007.63;;;17.90;100.00
19789;BME280;10054;59.332;18.244;2023-08-30T10:36:25;100012.83;;;17.96;100.00
19789;BME280;10054;59.332;18.244;2023-08-30T10:38:55;100018.03;;;18.01;100.00
19789;BME280;10054;59.332;18.244;2023-08-30T10:41:25;100009.05;;;18.06;100.00
19789;BME280;10054;59.332;18.244;2023-08-30T10:43:56;100010.75;;;18.12;100.00
19789;BME280;10054;59.332;18.244;2023-08-30T10:46:35;100016.78;;;18.18;100.00
19789;BME280;10054;59.332;18.244;2023-08-30T10:49:13;100018.66;;;18.25;100.00
19789;BME280;10054;59.332;18.244;2023-08-30T10:51:45;100024.68;;;18.27;100.00
19789;BME280;10054;59.332;18.244;2023-08-30T10:54:16;100019.50;;;18.26;100.00
19789;BME280;10054;59.332;18.244;2023-08-30T10:56:46;100010.66;;;18.25;100.00
19789;BME280;10054;59.332;18.244;2023-08-30T10:59:19;100013.96;;;18.19;100.00
19789;BME280;10054;59.332;18.244;2023-08-30T11:01:52;100013.94;;;18.15;100.00
19789;BME280;10054;59.332;18.244;2023-08-30T11:04:21;100008.40;;;18.09;100.00
19789;BME280;10054;59.332;18.244;2023-08-30T11:06:51;100004.38;;;18.04;100.00
19789;BME280;10054;59.332;18.244;2023-08-30T11:09:22;100008.53;;;18.03;100.00
19789;BME280;10054;59.332;18.244;2023-08-30T11:11:51;100003.31;;;17.93;100.00
19789;BME280;10054;59.332;18.244;2023-08-30T11:14:20;100006.81;;;17.94;100.00
19789;BME280;10054;59.332;18.244;2023-08-30T11:16:48;100008.02;;;17.99;100.00
19789;BME280;10054;59.332;18.244;2023-08-30T11:19:17;100010.73;;;18.08;100.00
19789;BME280;10054;59.332;18.244;2023-08-30T11:21:45;100012.40;;;18.09;100.00
19789;BME280;10054;59.332;18.244;2023-08-30T11:24:15;100014.58;;;18.09;100.00
19789;BME280;10054;59.332;18.244;2023-08-30T11:26:44;100016.42;;;18.13;100.00
19789;BME280;10054;59.332;18.244;2023-08-30T11:29:12;100009.75;;;18.13;100.00
19789;BME280;10054;59.332;18.244;2023-08-30T11:31:41;100006.59;;;18.13;100.00
19789;BME280;10054;59.332;18.244;2023-08-30T11:34:11;100015.23;;;18.07;100.00
19789;BME280;10054;59.332;18.244;2023-08-30T11:36:41;100008.69;;;18.01;100.00
19789;BME280;10054;59.332;18.244;2023-08-30T11:39:12;100008.35;;;18.00;100.00
19789;BME280;10054;59.332;18.244;2023-08-30T11:41:42;100007.02;;;18.00;100.00
19789;BME280;10054;59.332;18.244;2023-08-30T11:44:10;100010.50;;;17.97;100.00
19789;BME280;10054;59.332;18.244;2023-08-30T11:46:39;100015.47;;;17.92;100.00
19789;BME280;10054;59.332;18.244;2023-08-30T11:49:09;100009.93;;;17.85;100.00
19789;BME280;10054;59.332;18.244;2023-08-30T11:51:38;100014.75;;;17.78;100.00
19789;BME280;10054;59.332;18.244;2023-08-30T11:54:07;100012.40;;;17.57;100.00
19789;BME280;10054;59.332;18.244;2023-08-30T11:56:36;100011.50;;;17.48;100.00
19789;BME280;10054;59.332;18.244;2023-08-30T11:59:05;100006.09;;;17.40;100.00
19789;BME280;10054;59.332;18.244;2023-08-30T12:01:34;100000.89;;;17.34;100.00
19789;BME280;10054;59.332;18.244;2023-08-30T12:04:12;100000.36;;;17.31;100.00
19789;BME280;10054;59.332;18.244;2023-08-30T12:06:42;99996.86;;;17.30;100.00
19789;BME280;10054;59.332;18.244;2023-08-30T12:09:14;99996.55;;;17.33;100.00
19789;BME280;10054;59.332;18.244;2023-08-30T12:11:44;100007.41;;;17.36;100.00
19789;BME280;10054;59.332;18.244;2023-08-30T12:14:14;100007.09;;;17.39;100.00
19789;BME280;10054;59.332;18.244;2023-08-30T12:16:44;100006.94;;;17.40;100.00
19789;BME280;10054;59.332;18.244;2023-08-30T12:19:14;100002.75;;;17.38;100.00
19789;BME280;10054;59.332;18.244;2023-08-30T12:21:46;99997.08;;;17.37;100.00
19789;BME280;10054;59.332;18.244;2023-08-30T12:24:14;100005.23;;;17.35;100.00
19789;BME280;10054;59.332;18.244;2023-08-30T12:26:43;100004.02;;;17.30;100.00
19789;BME280;10054;59.332;18.244;2023-08-30T12:29:12;100000.81;;;17.26;100.00
19789;BME280;10054;59.332;18.244;2023-08-30T12:31:40;100000.14;;;17.24;100.00
19789;BME280;10054;59.332;18.244;2023-08-30T12:34:09;100001.28;;;17.22;100.00
19789;BME280;10054;59.332;18.244;2023-08-30T12:36:37;100005.09;;;17.19;100.00
19789;BME280;10054;59.332;18.244;2023-08-30T12:39:08;100000.91;;;17.17;100.00
19789;BME280;10054;59.332;18.244;2023-08-30T12:41:38;100001.05;;;17.15;100.00
19789;BME280;10054;59.332;18.244;2023-08-30T12:44:08;99999.88;;;17.14;100.00
19789;BME280;10054;59.332;18.244;2023-08-30T12:46:38;100006.34;;;17.11;100.00
19789;BME280;10054;59.332;18.244;2023-08-30T12:49:08;100002.99;;;17.05;100.00
19789;BME280;10054;59.332;18.244;2023-08-30T12:51:38;100009.92;;;16.98;100.00